sensor_id;sensor_type;location;lat;lon;timestamp;P1;durP1;ratioP1;P2;durP2;ratioP2
66702;SDS011;60933;46.398;-63.798;2024-02-23T00:00:40;11.50;;;2.65;;
66702;SDS011;60933;46.398;-63.798;2024-02-23T00:03:08;6.93;;;1.73;;
66702;SDS011;60933;46.398;-63.798;2024-02-23T00:05:37;14.80;;;3.70;;
66702;SDS011;60933;46.398;-63.798;2024-02-23T00:08:06;7.60;;;2.53;;
66702;SDS011;60933;46.398;-63.798;2024-02-23T00:10:36;3.85;;;1.60;;
66702;SDS011;60933;46.398;-63.798;2024-02-23T00:13:04;7.20;;;2.30;;
66702;SDS011;60933;46.398;-63.798;2024-02-23T00:15:32;3.30;;;1.13;;
66702;SDS011;60933;46.398;-63.798;2024-02-23T00:18:00;3.95;;;1.40;;
66702;SDS011;60933;46.398;-63.798;2024-02-23T00:20:30;3.75;;;0.95;;
66702;SDS011;60933;46.398;-63.798;2024-02-23T00:22:58;2.47;;;0.80;;
66702;SDS011;60933;46.398;-63.798;2024-02-23T00:25:26;2.60;;;1.13;;
66702;SDS011;60933;46.398;-63.798;2024-02-23T00:27:54;4.90;;;1.40;;
66702;SDS011;60933;46.398;-63.798;2024-02-23T00:30:22;3.38;;;1.58;;
66702;SDS011;60933;46.398;-63.798;2024-02-23T00:32:50;6.45;;;1.77;;
66702;SDS011;60933;46.398;-63.798;2024-02-23T00:35:19;5.03;;;1.52;;
66702;SDS011;60933;46.398;-63.798;2024-02-23T00:37:47;4.25;;;1.17;;
66702;SDS011;60933;46.398;-63.798;2024-02-23T00:40:15;4.00;;;0.95;;
66702;SDS011;60933;46.398;-63.798;2024-02-23T00:42:43;2.17;;;1.10;;
66702;SDS011;60933;46.398;-63.798;2024-02-23T00:45:11;7.45;;;2.53;;
66702;SDS011;60933;46.398;-63.798;2024-02-23T00:47:39;16.35;;;4.72;;
66702;SDS011;60933;46.398;-63.798;2024-02-23T00:50:08;10.63;;;4.30;;
66702;SDS011;60933;46.398;-63.798;2024-02-23T00:52:36;14.35;;;4.90;;
66702;SDS011;60933;46.398;-63.798;2024-02-23T00:55:04;5.70;;;1.83;;
66702;SDS011;60933;46.398;-63.798;2024-02-23T00:57:34;9.68;;;3.95;;
66702;SDS011;60933;46.398;-63.798;2024-02-23T01:00:03;5.18;;;2.28;;
66702;SDS011;60933;46.398;-63.798;2024-02-23T01:02:32;4.20;;;1.70;;
66702;SDS011;60933;46.398;-63.798;2024-02-23T01:05:00;3.53;;;1.42;;
66702;SDS011;60933;46.398;-63.798;2024-02-23T01:07:29;3.20;;;1.33;;
66702;SDS011;60933;46.398;-63.798;2024-02-23T01:09:59;3.10;;;1.50;;
66702;SDS011;60933;46.398;-63.798;2024-02-23T01:12:27;6.95;;;2.22;;
66702;SDS011;60933;46.398;-63.798;2024-02-23T01:14:55;9.18;;;2.28;;
66702;SDS011;60933;46.398;-63.798;2024-02-23T01:17:26;12.63;;;2.78;;
66702;SDS011;60933;46.398;-63.798;2024-02-23T01:19:55;7.22;;;2.10;;
66702;SDS011;60933;46.398;-63.798;2024-02-23T01:22:23;4.50;;;1.90;;
66702;SDS011;60933;46.398;-63.798;2024-02-23T01:24:51;7.45;;;2.65;;
66702;SDS011;60933;46.398;-63.798;2024-02-23T01:27:19;4.40;;;1.90;;
66702;SDS011;60933;46.398;-63.798;2024-02-23T01:29:47;5.15;;;2.30;;
66702;SDS011;60933;46.398;-63.798;2024-02-23T01:32:15;10.63;;;2.83;;
66702;SDS011;60933;46.398;-63.798;2024-02-23T01:34:44;6.65;;;2.03;;
66702;SDS011;60933;46.398;-63.798;2024-02-23T01:37:12;4.05;;;2.00;;
66702;SDS011;60933;46.398;-63.798;2024-02-23T01:39:40;5.85;;;1.98;;
66702;SDS011;60933;46.398;-63.798;2024-02-23T01:42:08;4.95;;;1.80;;
66702;SDS011;60933;46.398;-63.798;2024-02-23T01:44:37;4.38;;;2.10;;
66702;SDS011;60933;46.398;-63.798;2024-02-23T01:47:05;5.53;;;1.95;;
66702;SDS011;60933;46.398;-63.798;2024-02-23T01:49:33;7.50;;;1.90;;
66702;SDS011;60933;46.398;-63.798;2024-02-23T01:52:02;3.53;;;1.45;;
66702;SDS011;60933;46.398;-63.798;2024-02-23T01:54:31;6.40;;;1.70;;
66702;SDS011;60933;46.398;-63.798;2024-02-23T01:57:00;12.35;;;3.50;;
66702;SDS011;60933;46.398;-63.798;2024-02-23T01:59:49;7.38;;;2.22;;
66702;SDS011;60933;46.398;-63.798;2024-02-23T02:02:17;4.57;;;1.85;;
66702;SDS011;60933;46.398;-63.798;2024-02-23T02:04:45;6.40;;;1.70;;
66702;SDS011;60933;46.398;-63.798;2024-02-23T02:07:13;4.18;;;1.63;;
66702;SDS011;60933;46.398;-63.798;2024-02-23T02:09:41;6.03;;;2.20;;
66702;SDS011;60933;46.398;-63.798;2024-02-23T02:12:09;4.90;;;1.85;;
66702;SDS011;60933;46.398;-63.798;2024-02-23T02:14:37;7.82;;;2.13;;
66702;SDS011;60933;46.398;-63.798;2024-02-23T02:17:05;6.68;;;1.77;;
66702;SDS011;60933;46.398;-63.798;2024-02-23T02:19:34;5.65;;;2.03;;
66702;SDS011;60933;46.398;-63.798;2024-02-23T02:22:02;6.15;;;2.10;;
66702;SDS011;60933;46.398;-63.798;2024-02-23T02:24:30;3.78;;;1.65;;
66702;SDS011;60933;46.398;-63.798;2024-02-23T02:26:59;7.75;;;2.33;;
66702;SDS011;60933;46.398;-63.798;2024-02-23T02:29:26;5.15;;;2.17;;
66702;SDS011;60933;46.398;-63.798;2024-02-23T02:31:55;2.72;;;1.42;;
66702;SDS011;60933;46.398;-63.798;2024-02-23T02:34:22;5.03;;;2.17;;
66702;SDS011;60933;46.398;-63.798;2024-02-23T02:36:50;5.22;;;1.95;;
66702;SDS011;60933;46.398;-63.798;2024-02-23T02:39:18;4.95;;;1.80;;
66702;SDS011;60933;46.398;-63.798;2024-02-23T02:41:50;5.35;;;1.77;;
66702;SDS011;60933;46.398;-63.798;2024-02-23T02:44:18;8.93;;;3.22;;
66702;SDS011;60933;46.398;-63.798;2024-02-23T02:46:46;8.43;;;2.10;;
66702;SDS011;60933;46.398;-63.798;2024-02-23T02:49:14;6.90;;;2.45;;
66702;SDS011;60933;46.398;-63.798;2024-02-23T02:51:42;7.05;;;2.47;;
66702;SDS011;60933;46.398;-63.798;2024-02-23T02:54:12;9.05;;;2.40;;
66702;SDS011;60933;46.398;-63.798;2024-02-23T02:56:43;10.82;;;2.67;;
66702;SDS011;60933;46.398;-63.798;2024-02-23T02:59:13;5.50;;;1.95;;
66702;SDS011;60933;46.398;-63.798;2024-02-23T03:01:41;4.32;;;1.80;;
66702;SDS011;60933;46.398;-63.798;2024-02-23T03:04:09;8.07;;;2.60;;
66702;SDS011;60933;46.398;-63.798;2024-02-23T03:06:37;5.03;;;2.35;;
66702;SDS011;60933;46.398;-63.798;2024-02-23T03:09:05;7.57;;;1.90;;
66702;SDS011;60933;46.398;-63.798;2024-02-23T03:11:34;5.55;;;1.95;;
66702;SDS011;60933;46.398;-63.798;2024-02-23T03:14:03;4.90;;;1.75;;
66702;SDS011;60933;46.398;-63.798;2024-02-23T03:16:31;6.05;;;1.90;;
66702;SDS011;60933;46.398;-63.798;2024-02-23T03:19:01;7.30;;;2.58;;
66702;SDS011;60933;46.398;-63.798;2024-02-23T03:21:30;5.07;;;1.70;;
66702;SDS011;60933;46.398;-63.798;2024-02-23T03:24:00;4.43;;;1.80;;
66702;SDS011;60933;46.398;-63.798;2024-02-23T03:26:28;3.22;;;1.42;;
66702;SDS011;60933;46.398;-63.798;2024-02-23T03:28:55;8.00;;;1.42;;
66702;SDS011;60933;46.398;-63.798;2024-02-23T03:31:23;4.47;;;1.30;;
66702;SDS011;60933;46.398;-63.798;2024-02-23T03:33:51;3.40;;;1.20;;
66702;SDS011;60933;46.398;-63.798;2024-02-23T03:36:20;3.10;;;1.60;;
66702;SDS011;60933;46.398;-63.798;2024-02-23T03:38:48;5.32;;;1.60;;
66702;SDS011;60933;46.398;-63.798;2024-02-23T03:41:16;3.95;;;1.02;;
66702;SDS011;60933;46.398;-63.798;2024-02-23T03:43:44;3.95;;;1.75;;
66702;SDS011;60933;46.398;-63.798;2024-02-23T03:46:12;3.25;;;1.50;;
66702;SDS011;60933;46.398;-63.798;2024-02-23T03:48:41;3.28;;;1.20;;
66702;SDS011;60933;46.398;-63.798;2024-02-23T03:51:09;4.90;;;1.65;;
66702;SDS011;60933;46.398;-63.798;2024-02-23T03:53:37;3.83;;;1.30;;
66702;SDS011;60933;46.398;-63.798;2024-02-23T03:56:05;2.60;;;1.13;;
66702;SDS011;60933;46.398;-63.798;2024-02-23T03:58:33;3.28;;;1.17;;
66702;SDS011;60933;46.398;-63.798;2024-02-23T04:01:01;2.13;;;1.05;;
66702;SDS011;60933;46.398;-63.798;2024-02-23T04:03:29;4.07;;;1.52;;
66702;SDS011;60933;46.398;-63.798;2024-02-23T04:05:57;3.22;;;1.30;;
66702;SDS011;60933;46.398;-63.798;2024-02-23T04:08:25;4.88;;;1.95;;
66702;SDS011;60933;46.398;-63.798;2024-02-23T04:10:53;5.65;;;2.22;;
66702;SDS011;60933;46.398;-63.798;2024-02-23T04:13:22;4.50;;;1.40;;
66702;SDS011;60933;46.398;-63.798;2024-02-23T04:15:51;5.35;;;1.83;;
66702;SDS011;60933;46.398;-63.798;2024-02-23T04:18:19;3.70;;;1.27;;
66702;SDS011;60933;46.398;-63.798;2024-02-23T04:20:47;5.47;;;1.95;;
66702;SDS011;60933;46.398;-63.798;2024-02-23T04:23:15;6.85;;;2.00;;
66702;SDS011;60933;46.398;-63.798;2024-02-23T04:25:43;7.78;;;2.58;;
66702;SDS011;60933;46.398;-63.798;2024-02-23T04:28:11;7.55;;;2.22;;
66702;SDS011;60933;46.398;-63.798;2024-02-23T04:30:39;7.20;;;2.85;;
66702;SDS011;60933;46.398;-63.798;2024-02-23T04:33:07;12.77;;;2.40;;
66702;SDS011;60933;46.398;-63.798;2024-02-23T04:35:35;5.15;;;1.70;;
66702;SDS011;60933;46.398;-63.798;2024-02-23T04:38:04;9.95;;;2.25;;
66702;SDS011;60933;46.398;-63.798;2024-02-23T04:40:31;7.82;;;2.03;;
66702;SDS011;60933;46.398;-63.798;2024-02-23T04:43:00;3.80;;;1.35;;
66702;SDS011;60933;46.398;-63.798;2024-02-23T04:45:27;10.77;;;2.40;;
66702;SDS011;60933;46.398;-63.798;2024-02-23T04:47:55;7.68;;;2.20;;
66702;SDS011;60933;46.398;-63.798;2024-02-23T04:50:23;21.05;;;3.58;;
66702;SDS011;60933;46.398;-63.798;2024-02-23T04:52:51;7.43;;;1.67;;
66702;SDS011;60933;46.398;-63.798;2024-02-23T04:55:19;6.75;;;2.20;;
66702;SDS011;60933;46.398;-63.798;2024-02-23T04:57:47;6.95;;;2.30;;
66702;SDS011;60933;46.398;-63.798;2024-02-23T05:00:15;4.88;;;1.85;;
66702;SDS011;60933;46.398;-63.798;2024-02-23T05:02:45;3.25;;;1.10;;
66702;SDS011;60933;46.398;-63.798;2024-02-23T05:05:13;4.50;;;1.08;;
66702;SDS011;60933;46.398;-63.798;2024-02-23T05:07:41;7.22;;;1.33;;
66702;SDS011;60933;46.398;-63.798;2024-02-23T05:10:09;3.30;;;1.25;;
66702;SDS011;60933;46.398;-63.798;2024-02-23T05:12:37;5.78;;;1.52;;
66702;SDS011;60933;46.398;-63.798;2024-02-23T05:15:05;6.13;;;1.40;;
66702;SDS011;60933;46.398;-63.798;2024-02-23T05:17:34;5.93;;;1.30;;
66702;SDS011;60933;46.398;-63.798;2024-02-23T05:20:02;4.25;;;1.08;;
66702;SDS011;60933;46.398;-63.798;2024-02-23T05:22:35;3.33;;;1.40;;
66702;SDS011;60933;46.398;-63.798;2024-02-23T05:25:04;3.05;;;1.45;;
66702;SDS011;60933;46.398;-63.798;2024-02-23T05:27:32;4.25;;;1.65;;
66702;SDS011;60933;46.398;-63.798;2024-02-23T05:30:00;2.97;;;1.15;;
66702;SDS011;60933;46.398;-63.798;2024-02-23T05:32:29;4.15;;;1.13;;
66702;SDS011;60933;46.398;-63.798;2024-02-23T05:34:57;5.53;;;1.30;;
66702;SDS011;60933;46.398;-63.798;2024-02-23T05:37:25;11.30;;;2.90;;
66702;SDS011;60933;46.398;-63.798;2024-02-23T05:39:54;4.20;;;1.45;;
66702;SDS011;60933;46.398;-63.798;2024-02-23T05:42:22;6.72;;;1.73;;
66702;SDS011;60933;46.398;-63.798;2024-02-23T05:44:50;5.05;;;1.50;;
66702;SDS011;60933;46.398;-63.798;2024-02-23T05:47:18;10.57;;;2.65;;
66702;SDS011;60933;46.398;-63.798;2024-02-23T05:49:49;11.10;;;2.30;;
66702;SDS011;60933;46.398;-63.798;2024-02-23T05:52:18;7.18;;;2.20;;
66702;SDS011;60933;46.398;-63.798;2024-02-23T05:54:46;5.47;;;1.50;;
66702;SDS011;60933;46.398;-63.798;2024-02-23T05:57:17;7.72;;;2.45;;
66702;SDS011;60933;46.398;-63.798;2024-02-23T05:59:45;6.20;;;1.63;;
66702;SDS011;60933;46.398;-63.798;2024-02-23T06:02:13;4.85;;;1.45;;
66702;SDS011;60933;46.398;-63.798;2024-02-23T06:04:41;5.25;;;1.58;;
66702;SDS011;60933;46.398;-63.798;2024-02-23T06:07:10;5.47;;;1.52;;
66702;SDS011;60933;46.398;-63.798;2024-02-23T06:09:38;8.10;;;1.88;;
66702;SDS011;60933;46.398;-63.798;2024-02-23T06:12:07;9.07;;;1.80;;
66702;SDS011;60933;46.398;-63.798;2024-02-23T06:14:35;3.75;;;1.05;;
66702;SDS011;60933;46.398;-63.798;2024-02-23T06:17:03;6.30;;;2.60;;
66702;SDS011;60933;46.398;-63.798;2024-02-23T06:19:33;11.50;;;2.38;;
66702;SDS011;60933;46.398;-63.798;2024-02-23T06:22:02;10.50;;;2.28;;
66702;SDS011;60933;46.398;-63.798;2024-02-23T06:24:30;9.65;;;1.90;;
66702;SDS011;60933;46.398;-63.798;2024-02-23T06:26:58;8.73;;;2.05;;
66702;SDS011;60933;46.398;-63.798;2024-02-23T06:29:26;11.18;;;2.45;;
66702;SDS011;60933;46.398;-63.798;2024-02-23T06:31:55;7.63;;;1.85;;
66702;SDS011;60933;46.398;-63.798;2024-02-23T06:34:23;7.07;;;2.30;;
66702;SDS011;60933;46.398;-63.798;2024-02-23T06:36:51;8.77;;;2.50;;
66702;SDS011;60933;46.398;-63.798;2024-02-23T06:39:19;9.45;;;2.50;;
66702;SDS011;60933;46.398;-63.798;2024-02-23T06:41:47;7.72;;;2.33;;
66702;SDS011;60933;46.398;-63.798;2024-02-23T06:44:15;7.82;;;2.28;;
66702;SDS011;60933;46.398;-63.798;2024-02-23T06:46:43;7.82;;;2.38;;
66702;SDS011;60933;46.398;-63.798;2024-02-23T06:49:11;5.30;;;1.95;;
66702;SDS011;60933;46.398;-63.798;2024-02-23T06:51:39;6.88;;;1.65;;
66702;SDS011;60933;46.398;-63.798;2024-02-23T06:54:08;7.72;;;2.08;;
66702;SDS011;60933;46.398;-63.798;2024-02-23T06:56:35;6.00;;;1.48;;
66702;SDS011;60933;46.398;-63.798;2024-02-23T06:59:05;10.85;;;2.53;;
66702;SDS011;60933;46.398;-63.798;2024-02-23T07:01:33;5.50;;;2.30;;
66702;SDS011;60933;46.398;-63.798;2024-02-23T07:04:06;5.68;;;1.80;;
66702;SDS011;60933;46.398;-63.798;2024-02-23T07:06:34;8.60;;;1.98;;
66702;SDS011;60933;46.398;-63.798;2024-02-23T07:09:03;9.63;;;2.08;;
66702;SDS011;60933;46.398;-63.798;2024-02-23T07:11:31;7.15;;;2.15;;
66702;SDS011;60933;46.398;-63.798;2024-02-23T07:14:00;5.57;;;1.48;;
66702;SDS011;60933;46.398;-63.798;2024-02-23T07:16:28;6.55;;;1.45;;
66702;SDS011;60933;46.398;-63.798;2024-02-23T07:18:56;4.15;;;1.67;;
66702;SDS011;60933;46.398;-63.798;2024-02-23T07:21:24;3.67;;;1.77;;
66702;SDS011;60933;46.398;-63.798;2024-02-23T07:23:53;7.35;;;1.50;;
66702;SDS011;60933;46.398;-63.798;2024-02-23T07:26:20;3.88;;;1.42;;
66702;SDS011;60933;46.398;-63.798;2024-02-23T07:28:49;5.32;;;1.48;;
66702;SDS011;60933;46.398;-63.798;2024-02-23T07:31:17;4.60;;;1.17;;
66702;SDS011;60933;46.398;-63.798;2024-02-23T07:33:45;7.68;;;1.10;;
66702;SDS011;60933;46.398;-63.798;2024-02-23T07:36:14;2.85;;;0.85;;
66702;SDS011;60933;46.398;-63.798;2024-02-23T07:38:42;2.45;;;0.95;;
66702;SDS011;60933;46.398;-63.798;2024-02-23T07:41:14;4.53;;;1.13;;
66702;SDS011;60933;46.398;-63.798;2024-02-23T07:43:42;4.18;;;1.08;;
66702;SDS011;60933;46.398;-63.798;2024-02-23T07:46:11;2.65;;;0.80;;
66702;SDS011;60933;46.398;-63.798;2024-02-23T07:48:40;5.88;;;1.25;;
66702;SDS011;60933;46.398;-63.798;2024-02-23T07:51:08;3.72;;;1.05;;
66702;SDS011;60933;46.398;-63.798;2024-02-23T07:53:36;2.83;;;1.10;;
66702;SDS011;60933;46.398;-63.798;2024-02-23T07:56:07;6.80;;;1.10;;
66702;SDS011;60933;46.398;-63.798;2024-02-23T07:58:35;6.20;;;1.20;;
66702;SDS011;60933;46.398;-63.798;2024-02-23T08:01:03;3.13;;;0.80;;
66702;SDS011;60933;46.398;-63.798;2024-02-23T08:03:31;7.38;;;1.70;;
66702;SDS011;60933;46.398;-63.798;2024-02-23T08:05:59;3.22;;;0.70;;
66702;SDS011;60933;46.398;-63.798;2024-02-23T08:08:29;0.90;;;0.47;;
66702;SDS011;60933;46.398;-63.798;2024-02-23T08:11:00;5.72;;;1.05;;
66702;SDS011;60933;46.398;-63.798;2024-02-23T08:13:29;4.75;;;1.17;;
66702;SDS011;60933;46.398;-63.798;2024-02-23T08:16:00;3.90;;;0.88;;
66702;SDS011;60933;46.398;-63.798;2024-02-23T08:18:29;2.75;;;0.90;;
66702;SDS011;60933;46.398;-63.798;2024-02-23T08:20:58;3.13;;;0.60;;
66702;SDS011;60933;46.398;-63.798;2024-02-23T08:23:29;2.95;;;0.75;;
66702;SDS011;60933;46.398;-63.798;2024-02-23T08:25:57;5.03;;;1.30;;
66702;SDS011;60933;46.398;-63.798;2024-02-23T08:28:25;4.90;;;0.70;;
66702;SDS011;60933;46.398;-63.798;2024-02-23T08:30:53;3.45;;;0.85;;
66702;SDS011;60933;46.398;-63.798;2024-02-23T08:33:21;2.55;;;0.70;;
66702;SDS011;60933;46.398;-63.798;2024-02-23T08:35:50;1.98;;;0.60;;
66702;SDS011;60933;46.398;-63.798;2024-02-23T08:38:17;3.08;;;1.23;;
66702;SDS011;60933;46.398;-63.798;2024-02-23T08:40:46;2.63;;;0.73;;
66702;SDS011;60933;46.398;-63.798;2024-02-23T08:43:14;3.33;;;0.50;;
66702;SDS011;60933;46.398;-63.798;2024-02-23T08:45:42;2.75;;;0.73;;
66702;SDS011;60933;46.398;-63.798;2024-02-23T08:48:10;1.27;;;0.55;;
66702;SDS011;60933;46.398;-63.798;2024-02-23T08:50:42;2.67;;;0.70;;
66702;SDS011;60933;46.398;-63.798;2024-02-23T08:53:10;2.17;;;0.47;;
66702;SDS011;60933;46.398;-63.798;2024-02-23T08:55:38;3.30;;;0.63;;
66702;SDS011;60933;46.398;-63.798;2024-02-23T08:58:06;4.80;;;0.82;;
66702;SDS011;60933;46.398;-63.798;2024-02-23T09:00:34;2.20;;;0.60;;
66702;SDS011;60933;46.398;-63.798;2024-02-23T09:03:04;3.22;;;0.88;;
66702;SDS011;60933;46.398;-63.798;2024-02-23T09:05:32;4.15;;;0.88;;
66702;SDS011;60933;46.398;-63.798;2024-02-23T09:08:00;2.03;;;0.52;;
66702;SDS011;60933;46.398;-63.798;2024-02-23T09:10:28;1.55;;;0.80;;
66702;SDS011;60933;46.398;-63.798;2024-02-23T09:12:56;3.10;;;0.90;;
66702;SDS011;60933;46.398;-63.798;2024-02-23T09:15:24;2.13;;;1.15;;
66702;SDS011;60933;46.398;-63.798;2024-02-23T09:17:52;5.63;;;0.82;;
66702;SDS011;60933;46.398;-63.798;2024-02-23T09:20:20;2.40;;;0.90;;
66702;SDS011;60933;46.398;-63.798;2024-02-23T09:22:48;2.78;;;0.70;;
66702;SDS011;60933;46.398;-63.798;2024-02-23T09:25:16;1.40;;;0.55;;
66702;SDS011;60933;46.398;-63.798;2024-02-23T09:27:44;2.80;;;0.82;;
66702;SDS011;60933;46.398;-63.798;2024-02-23T09:30:12;1.70;;;0.60;;
66702;SDS011;60933;46.398;-63.798;2024-02-23T09:32:42;1.60;;;0.57;;
66702;SDS011;60933;46.398;-63.798;2024-02-23T09:35:11;1.25;;;0.55;;
66702;SDS011;60933;46.398;-63.798;2024-02-23T09:37:40;3.85;;;0.73;;
66702;SDS011;60933;46.398;-63.798;2024-02-23T09:40:08;1.63;;;0.77;;
66702;SDS011;60933;46.398;-63.798;2024-02-23T09:42:37;1.88;;;0.80;;
66702;SDS011;60933;46.398;-63.798;2024-02-23T09:45:06;1.27;;;0.73;;
66702;SDS011;60933;46.398;-63.798;2024-02-23T09:47:36;1.42;;;0.43;;
66702;SDS011;60933;46.398;-63.798;2024-02-23T09:50:04;2.55;;;0.63;;
66702;SDS011;60933;46.398;-63.798;2024-02-23T09:52:32;2.85;;;0.70;;
66702;SDS011;60933;46.398;-63.798;2024-02-23T09:55:01;2.50;;;0.63;;
66702;SDS011;60933;46.398;-63.798;2024-02-23T09:57:30;1.83;;;0.73;;
66702;SDS011;60933;46.398;-63.798;2024-02-23T09:59:58;2.15;;;0.93;;
66702;SDS011;60933;46.398;-63.798;2024-02-23T10:02:26;1.75;;;0.50;;
66702;SDS011;60933;46.398;-63.798;2024-02-23T10:04:56;4.30;;;0.70;;
66702;SDS011;60933;46.398;-63.798;2024-02-23T10:07:25;2.25;;;0.85;;
66702;SDS011;60933;46.398;-63.798;2024-02-23T10:09:53;1.30;;;0.70;;
66702;SDS011;60933;46.398;-63.798;2024-02-23T10:12:22;2.40;;;1.00;;
66702;SDS011;60933;46.398;-63.798;2024-02-23T10:14:50;3.17;;;0.70;;
66702;SDS011;60933;46.398;-63.798;2024-02-23T10:17:20;2.38;;;1.08;;
66702;SDS011;60933;46.398;-63.798;2024-02-23T10:19:48;1.63;;;0.70;;
66702;SDS011;60933;46.398;-63.798;2024-02-23T10:22:16;1.45;;;0.80;;
66702;SDS011;60933;46.398;-63.798;2024-02-23T10:24:44;1.63;;;0.50;;
66702;SDS011;60933;46.398;-63.798;2024-02-23T10:27:12;3.22;;;0.68;;
66702;SDS011;60933;46.398;-63.798;2024-02-23T10:29:40;5.22;;;0.73;;
66702;SDS011;60933;46.398;-63.798;2024-02-23T10:32:09;2.50;;;0.65;;
66702;SDS011;60933;46.398;-63.798;2024-02-23T10:34:42;5.60;;;0.60;;
66702;SDS011;60933;46.398;-63.798;2024-02-23T10:37:11;1.88;;;0.77;;
66702;SDS011;60933;46.398;-63.798;2024-02-23T10:39:39;3.60;;;0.80;;
66702;SDS011;60933;46.398;-63.798;2024-02-23T10:42:08;2.25;;;0.80;;
66702;SDS011;60933;46.398;-63.798;2024-02-23T10:44:38;3.15;;;0.88;;
66702;SDS011;60933;46.398;-63.798;2024-02-23T10:47:07;3.53;;;0.70;;
66702;SDS011;60933;46.398;-63.798;2024-02-23T10:49:36;2.20;;;0.80;;
66702;SDS011;60933;46.398;-63.798;2024-02-23T10:52:07;1.55;;;0.70;;
66702;SDS011;60933;46.398;-63.798;2024-02-23T10:54:39;2.42;;;1.00;;
66702;SDS011;60933;46.398;-63.798;2024-02-23T10:57:07;2.75;;;0.70;;
66702;SDS011;60933;46.398;-63.798;2024-02-23T10:59:35;1.83;;;0.80;;
66702;SDS011;60933;46.398;-63.798;2024-02-23T11:02:03;2.50;;;0.90;;
66702;SDS011;60933;46.398;-63.798;2024-02-23T11:04:32;2.53;;;0.73;;
66702;SDS011;60933;46.398;-63.798;2024-02-23T11:07:02;4.07;;;0.70;;
66702;SDS011;60933;46.398;-63.798;2024-02-23T11:09:35;3.78;;;0.90;;
66702;SDS011;60933;46.398;-63.798;2024-02-23T11:12:03;3.95;;;1.10;;
66702;SDS011;60933;46.398;-63.798;2024-02-23T11:14:35;2.10;;;0.77;;
66702;SDS011;60933;46.398;-63.798;2024-02-23T11:17:04;5.65;;;0.70;;
66702;SDS011;60933;46.398;-63.798;2024-02-23T11:22:05;2.22;;;0.70;;
66702;SDS011;60933;46.398;-63.798;2024-02-23T11:24:48;1.85;;;0.80;;
66702;SDS011;60933;46.398;-63.798;2024-02-23T11:27:21;1.48;;;0.60;;
66702;SDS011;60933;46.398;-63.798;2024-02-23T11:30:04;1.98;;;0.82;;
66702;SDS011;60933;46.398;-63.798;2024-02-23T11:32:44;2.70;;;1.20;;
66702;SDS011;60933;46.398;-63.798;2024-02-23T11:35:15;2.25;;;0.80;;
66702;SDS011;60933;46.398;-63.798;2024-02-23T11:37:51;2.35;;;0.70;;
66702;SDS011;60933;46.398;-63.798;2024-02-23T11:40:27;1.77;;;0.60;;
66702;SDS011;60933;46.398;-63.798;2024-02-23T11:42:57;2.95;;;0.75;;
66702;SDS011;60933;46.398;-63.798;2024-02-23T11:45:29;2.22;;;0.70;;
66702;SDS011;60933;46.398;-63.798;2024-02-23T11:47:58;2.10;;;1.08;;
66702;SDS011;60933;46.398;-63.798;2024-02-23T11:50:27;1.60;;;0.75;;
66702;SDS011;60933;46.398;-63.798;2024-02-23T11:52:54;2.85;;;1.00;;
66702;SDS011;60933;46.398;-63.798;2024-02-23T11:55:22;1.90;;;0.63;;
66702;SDS011;60933;46.398;-63.798;2024-02-23T11:57:50;1.85;;;0.65;;
66702;SDS011;60933;46.398;-63.798;2024-02-23T12:00:31;1.00;;;0.70;;
66702;SDS011;60933;46.398;-63.798;2024-02-23T12:02:59;1.95;;;1.38;;
66702;SDS011;60933;46.398;-63.798;2024-02-23T12:05:27;2.20;;;0.60;;
66702;SDS011;60933;46.398;-63.798;2024-02-23T12:07:55;3.05;;;0.65;;
66702;SDS011;60933;46.398;-63.798;2024-02-23T12:10:25;3.50;;;0.77;;
66702;SDS011;60933;46.398;-63.798;2024-02-23T12:12:54;5.25;;;0.75;;
66702;SDS011;60933;46.398;-63.798;2024-02-23T12:15:23;2.13;;;0.70;;
66702;SDS011;60933;46.398;-63.798;2024-02-23T12:17:50;2.83;;;0.90;;
66702;SDS011;60933;46.398;-63.798;2024-02-23T12:20:19;1.88;;;0.60;;
66702;SDS011;60933;46.398;-63.798;2024-02-23T12:22:48;4.43;;;0.80;;
66702;SDS011;60933;46.398;-63.798;2024-02-23T12:25:16;7.28;;;0.95;;
66702;SDS011;60933;46.398;-63.798;2024-02-23T12:27:44;2.80;;;1.08;;
66702;SDS011;60933;46.398;-63.798;2024-02-23T12:30:13;5.03;;;1.25;;
66702;SDS011;60933;46.398;-63.798;2024-02-23T12:32:44;3.17;;;1.05;;
66702;SDS011;60933;46.398;-63.798;2024-02-23T12:35:14;3.88;;;0.60;;
66702;SDS011;60933;46.398;-63.798;2024-02-23T12:37:43;1.60;;;0.52;;
66702;SDS011;60933;46.398;-63.798;2024-02-23T12:40:12;3.47;;;0.82;;
66702;SDS011;60933;46.398;-63.798;2024-02-23T12:42:40;2.28;;;0.93;;
66702;SDS011;60933;46.398;-63.798;2024-02-23T12:45:08;4.63;;;0.93;;
66702;SDS011;60933;46.398;-63.798;2024-02-23T12:47:36;2.28;;;1.20;;
66702;SDS011;60933;46.398;-63.798;2024-02-23T12:50:06;5.68;;;0.82;;
66702;SDS011;60933;46.398;-63.798;2024-02-23T12:52:35;2.42;;;0.70;;
66702;SDS011;60933;46.398;-63.798;2024-02-23T12:55:03;2.25;;;0.90;;
66702;SDS011;60933;46.398;-63.798;2024-02-23T12:57:31;2.83;;;0.70;;
66702;SDS011;60933;46.398;-63.798;2024-02-23T13:00:01;2.88;;;0.90;;
66702;SDS011;60933;46.398;-63.798;2024-02-23T13:02:29;2.83;;;0.77;;
66702;SDS011;60933;46.398;-63.798;2024-02-23T13:04:57;1.60;;;0.80;;
66702;SDS011;60933;46.398;-63.798;2024-02-23T13:07:26;2.28;;;1.20;;
66702;SDS011;60933;46.398;-63.798;2024-02-23T13:09:57;3.53;;;0.93;;
66702;SDS011;60933;46.398;-63.798;2024-02-23T13:12:24;4.00;;;0.63;;
66702;SDS011;60933;46.398;-63.798;2024-02-23T13:14:53;2.40;;;0.80;;
66702;SDS011;60933;46.398;-63.798;2024-02-23T13:17:20;2.95;;;1.45;;
66702;SDS011;60933;46.398;-63.798;2024-02-23T13:19:48;4.90;;;0.82;;
66702;SDS011;60933;46.398;-63.798;2024-02-23T13:22:31;3.17;;;0.88;;
66702;SDS011;60933;46.398;-63.798;2024-02-23T13:24:58;4.43;;;1.00;;
66702;SDS011;60933;46.398;-63.798;2024-02-23T13:27:26;2.67;;;1.15;;
66702;SDS011;60933;46.398;-63.798;2024-02-23T13:29:54;2.95;;;0.98;;
66702;SDS011;60933;46.398;-63.798;2024-02-23T13:32:22;4.20;;;0.70;;
66702;SDS011;60933;46.398;-63.798;2024-02-23T13:34:50;4.47;;;0.73;;
66702;SDS011;60933;46.398;-63.798;2024-02-23T13:37:20;5.82;;;0.98;;
66702;SDS011;60933;46.398;-63.798;2024-02-23T13:39:48;3.30;;;0.63;;
66702;SDS011;60933;46.398;-63.798;2024-02-23T13:42:15;2.72;;;0.98;;
66702;SDS011;60933;46.398;-63.798;2024-02-23T13:44:43;2.83;;;0.98;;
66702;SDS011;60933;46.398;-63.798;2024-02-23T13:47:12;3.13;;;1.27;;
66702;SDS011;60933;46.398;-63.798;2024-02-23T13:49:40;3.20;;;0.52;;
66702;SDS011;60933;46.398;-63.798;2024-02-23T13:52:08;3.55;;;1.17;;
66702;SDS011;60933;46.398;-63.798;2024-02-23T13:54:36;2.88;;;0.93;;
66702;SDS011;60933;46.398;-63.798;2024-02-23T13:57:04;8.55;;;1.38;;
66702;SDS011;60933;46.398;-63.798;2024-02-23T13:59:32;3.85;;;1.00;;
66702;SDS011;60933;46.398;-63.798;2024-02-23T14:02:00;4.95;;;1.38;;
66702;SDS011;60933;46.398;-63.798;2024-02-23T14:04:28;4.55;;;1.10;;
66702;SDS011;60933;46.398;-63.798;2024-02-23T14:06:56;5.20;;;1.55;;
66702;SDS011;60933;46.398;-63.798;2024-02-23T14:09:24;3.58;;;1.02;;
66702;SDS011;60933;46.398;-63.798;2024-02-23T14:11:52;5.03;;;1.58;;
66702;SDS011;60933;46.398;-63.798;2024-02-23T14:14:20;2.70;;;1.10;;
66702;SDS011;60933;46.398;-63.798;2024-02-23T14:16:48;7.40;;;1.65;;
66702;SDS011;60933;46.398;-63.798;2024-02-23T14:19:16;6.03;;;1.00;;
66702;SDS011;60933;46.398;-63.798;2024-02-23T14:21:46;6.97;;;1.40;;
66702;SDS011;60933;46.398;-63.798;2024-02-23T14:24:15;5.20;;;1.38;;
66702;SDS011;60933;46.398;-63.798;2024-02-23T14:26:43;5.45;;;1.33;;
66702;SDS011;60933;46.398;-63.798;2024-02-23T14:29:11;4.40;;;1.52;;
66702;SDS011;60933;46.398;-63.798;2024-02-23T14:31:39;3.38;;;1.10;;